Etusivu
METAR-TAF:

METAR-TAF

Lentoasemat :

Johnstown, Pennsylvania, Yhdysvallat

Leveyspiiri: 40-18-58N, Pituuspiiri: 078-50-02W, korkeus merenpinnasta: 696 m

Tämänhetkinen sää

Tämä raportti tehtiin 26 minuuttia sitten, kello 05.54 UTC
Tuuli 9 kn lännestä/luoteesta
Lämpötila 1°C
Kosteus 55%
Ilmanpaine 1013 hPa
Näkyvyys: 16.1 km
selkeää

METAR: KJST 020554Z AUTO 30009KT 10SM CLR 01/M07 A2992 RMK AO2 SLP147 T00111072 10061 20011 51005

Aika: 02:20 (06:20 UTC)

Sääennuste

Tämä raportti tehtiin 1 tunti ja 0 minuuttia sitten, kello 05.20 UTC
Ennuste voimassa 02. päivästä klo 06 UTC - 03. päivään klo 06 UTC
Tuuli 9 kn luoteesta
Näkyvyys: 10 km
Hajanaisia pilviä 5000 ft:n korkeudessa
From 02. päivästä klo 1400 UTC
Tuuli 14 kn luoteesta puuskistuen 23 kn:hen
Näkyvyys: 10 km
Hajonneita pilviä 3500 ft:n korkeudessa

TAF: KJST 020520Z 0206/0306 31009KT P6SM SCT050 FM021400 31014G23KT P6SM BKN035

Säähavainnot ja -ennusteet yli 4000 lentoasemalta (METAR- ja TAF-raportit).

Käytössä olevat sääasemat on merkitty karttaan keltaisilla ja punaisilla pisteillä.

Aseta hiiri pisteen päälle nähdäksesi sääaseman nimen.

Klikkaa sitten nähdäksesi säähavainnot ja -ennusteet.

Kartan vaihtaminen: klikkaa mustalla rastilla varustettuja vihreitä pisteitä, niin voit zoomata sisään; viivalla varustettua vihreää pistettä, niin voit zoomata ulos tai vihreitä nuolia, niin pääset viereisille kartoille.


METAR-TAF: